Wood River, IL (62095)

4:07 PM CDT on May 24, 2017 (GMT -0500)
Wood River (West End) | | Change Station
Active Advisory: Flood Warning

Elev 446 ft 38.87 °N, 90.10 °W | Updated 6 seconds ago

Mostly Cloudy
Mostly Cloudy
67.5 °F
Feels Like 67.5 °F
N
2.0
Wind Variable Wind from North

Today
High -- | Low -- °F
--% Chance of Precip.
Yesterday
High -- | Low -- °F
Precip. -- in
Pressure 29.55 in
Visibility 10.0 miles
Clouds Scattered Clouds 3500 ft
Mostly Cloudy 9000 ft
Dew Point 50 °F
Humidity 55%
Rainfall 0.00 in
Snow Depth Not available.
5:40 AM 8:14 PM
Waning Crescent, 1% visible
METAR KALN 242047Z 31008KT 10SM SCT035 BKN090 16/11 A2955
Pressure 29.55 in
Visibility 10.0 miles
Clouds Scattered Clouds 3500 ft
Mostly Cloudy 9000 ft
Dew Point 50 °F
Humidity 55%
Rainfall 0.00 in
Snow Depth Not available.
5:40 AM 8:14 PM
Waning Crescent, 1% visible
METAR KALN 242047Z 31008KT 10SM SCT035 BKN090 16/11 A2955

Get Your Daily Forecast Email!

Thanks for signing up!

Be on the lookout for a verification email in your inbox.

You'll start receiving severe weather alerts in your inbox..

×

10-Day Weather Forecast

Almanac

Astronomy

May. 24, 2017 Rise Set
Actual Time
Civil Twilight
Nautical Twilight
Astronomical Twilight
Moon
Length of Visible Light
Length of Day
Tomorrow will be .
, % of the Moon is Illuminated

Today's Extremes

State Highs State Lows

Community

WunderPhotos

Category 6

Welcome to Category 6. This is the collective home for Weather Underground's featured writeups by Dr. Jeff Masters (right), Bob Henson (left), Chris Burt, and other regular contributors.

Nearby

Air Quality

  Air Quality AQ Index Pollutant
Not available.

Snow Depth

Station Depth Elevation

Earthquake Activity

City Distance Mag. Time & Date
Minimum magnitude displayed is 2.5.

Coastal Water Temperatures

Place Temperature

Stations

Nearby Weather Stations

Station Location Temp. Windchill Dew Point Humidity Wind Precip. Elev Updated Type
                   

Watches & Warnings

Flood Warning
Issued: 11:34 AM CDT May. 24, 2017 – National Weather Service

The Flood Warning continues for
the Mississippi River at mel price ld
* until Wednesday may 31.
* At 11:00 am Wednesday the stage was 24.9 feet.
* Flood stage is 21.0 feet.
* Minor flooding is forecast.
* The river is forecast to continue falling to below flood stage by
Tuesday morning.


                   Fld latest 7 a.M. Forecast
location stg obs stg 05/25 05/26 05/27 05/28 05/29

Mississippi River
mel price ld 21.0 24.85 24.7 24.5 23.6 22.5 21.6




Lat... Lon 3891 9033 3895 9028 3883 9003 3881 9017
      3886 9017